Pagina principală
METAR-TAF:

METAR-TAF

Aeroporturi :

Ipiales, Columbia

Latitudine: 00-49N, longitudine: 077-38W, elevație: 2961 m

Observații meteo curente

Raportul a fost făcut în urmă cu 1 oră și 4 de minute, la 16:00 UTC
Vânt 4 kt de la Est/Sud-est
Temperatură 17°C
Umiditate 68%
Presiune 1030 hPa
Vizibilitate de 10 km sau mai mult
Nori fragmentați la o înălțime de 1800 picior

METAR: SKIP 241600Z 11004KT 9999 BKN018 17/11 Q1030

Ora: 12:04 (17:04 UTC)


TAF: lipsă

Observații și prognoze meteo pentru peste 4.000 de aeroporturi (rapoarte METAR și TAF).

Stațiile disponibile sunt reprezentate pe hartă prin puncte galbene și roșii.

Țineți indicatorul mouse-ului pe punctul dorit pentru a vedea denumirea stației.

Apoi, faceți clic pentru a vedea observațiile și prognozele meteorologice.

Pentru a schimba harta: Pentru mărire, faceți clic pe butoanele verzi cu cruce neagră; pentru micșorare, pe butonul verde cu o liniuță; pentru hărți învecinate, pe săgețile verzi.


METAR-TAF: